FDX169 NZCH-NZQN
Flight info
| Callsign | FDX169 |
|---|---|
| Flight time | 0h 38m |
| Altitude | 28000 |
| Route | GUPUT Y266 ELRUV |
| Aircraft | B738/M-SDE2E3FGHIRWXY/LB1 |
Departure
| Time | 2026-05-08 10:17 |
|---|---|
| Airport | Christchurch International Airport (NZCH) |
Arrival
| Time | 2026-05-08 10:55 |
|---|---|
| Airport | Queenstown Airport (NZQN) |
| Time | Latitude | Longitude | Altitude | Speed | Heading |
|---|---|---|---|---|---|
| 2026-05-08 09:36 | -43.48647 | 172.54630 | 106 ft | 0 kts | 219° |
| 2026-05-08 10:09 | -43.48659 | 172.54611 | 106 ft | 9 kts | 234° |
| 2026-05-08 10:10 | -43.48690 | 172.54498 | 107 ft | 13 kts | 251° |
| 2026-05-08 10:10 | -43.48679 | 172.54383 | 107 ft | 13 kts | 304° |
| 2026-05-08 10:10 | -43.48630 | 172.54283 | 106 ft | 12 kts | 304° |
| 2026-05-08 10:10 | -43.48580 | 172.54189 | 106 ft | 12 kts | 309° |
| 2026-05-08 10:11 | -43.48523 | 172.54105 | 107 ft | 12 kts | 314° |
| 2026-05-08 10:11 | -43.48517 | 172.54003 | 107 ft | 12 kts | 235° |
| 2026-05-08 10:11 | -43.48578 | 172.53910 | 108 ft | 15 kts | 218° |
| 2026-05-08 10:11 | -43.48662 | 172.53815 | 108 ft | 16 kts | 221° |
| 2026-05-08 10:12 | -43.48742 | 172.53719 | 106 ft | 15 kts | 220° |
| 2026-05-08 10:12 | -43.48819 | 172.53629 | 108 ft | 14 kts | 218° |
| 2026-05-08 10:12 | -43.48895 | 172.53549 | 108 ft | 14 kts | 214° |
| 2026-05-08 10:12 | -43.48970 | 172.53474 | 110 ft | 13 kts | 220° |
| 2026-05-08 10:13 | -43.49040 | 172.53391 | 109 ft | 14 kts | 220° |
| 2026-05-08 10:13 | -43.49112 | 172.53306 | 111 ft | 13 kts | 220° |
| 2026-05-08 10:13 | -43.49181 | 172.53225 | 115 ft | 13 kts | 220° |
| 2026-05-08 10:13 | -43.49250 | 172.53148 | 115 ft | 13 kts | 220° |
| 2026-05-08 10:14 | -43.49323 | 172.53065 | 119 ft | 13 kts | 219° |
| 2026-05-08 10:14 | -43.49393 | 172.52984 | 121 ft | 14 kts | 219° |
| 2026-05-08 10:14 | -43.49483 | 172.52881 | 125 ft | 14 kts | 220° |
| 2026-05-08 10:14 | -43.49557 | 172.52796 | 126 ft | 14 kts | 220° |
| 2026-05-08 10:15 | -43.49653 | 172.52684 | 125 ft | 23 kts | 220° |
| 2026-05-08 10:15 | -43.49769 | 172.52547 | 125 ft | 16 kts | 221° |
| 2026-05-08 10:15 | -43.49792 | 172.52406 | 124 ft | 15 kts | 272° |
| 2026-05-08 10:15 | -43.49775 | 172.52265 | 124 ft | 15 kts | 303° |
| 2026-05-08 10:16 | -43.49710 | 172.52273 | 121 ft | 10 kts | 32° |
| 2026-05-08 10:16 | -43.49658 | 172.52332 | 119 ft | 10 kts | 40° |
| 2026-05-08 10:16 | -43.49602 | 172.52397 | 123 ft | 17 kts | 40° |
| 2026-05-08 10:16 | -43.49337 | 172.52703 | 122 ft | 90 kts | 40° |
| 2026-05-08 10:17 | -43.48666 | 172.53477 | 122 ft | 157 kts | 38° |
| 2026-05-08 10:17 | -43.47774 | 172.54536 | 665 ft | 177 kts | 39° |
| 2026-05-08 10:17 | -43.46705 | 172.55438 | 1435 ft | 180 kts | 13° |
| 2026-05-08 10:17 | -43.45534 | 172.55381 | 2343 ft | 173 kts | 334° |
| 2026-05-08 10:18 | -43.44738 | 172.54103 | 2838 ft | 191 kts | 290° |
| 2026-05-08 10:18 | -43.44689 | 172.52221 | 3533 ft | 205 kts | 268° |
| 2026-05-08 10:18 | -43.45405 | 172.50407 | 4274 ft | 230 kts | 236° |
| 2026-05-08 10:18 | -43.46535 | 172.48897 | 5195 ft | 231 kts | 234° |
| 2026-05-08 10:19 | -43.47738 | 172.47394 | 5942 ft | 236 kts | 233° |
| 2026-05-08 10:19 | -43.48907 | 172.45782 | 6495 ft | 243 kts | 244° |
| 2026-05-08 10:19 | -43.49893 | 172.43769 | 6807 ft | 263 kts | 249° |
| 2026-05-08 10:20 | -43.51873 | 172.39349 | 8373 ft | 275 kts | 248° |
| 2026-05-08 10:20 | -43.52895 | 172.37111 | 9253 ft | 278 kts | 248° |
| 2026-05-08 10:20 | -43.53938 | 172.34850 | 10010 ft | 282 kts | 248° |
| 2026-05-08 10:20 | -43.54994 | 172.32581 | 10730 ft | 288 kts | 247° |
| 2026-05-08 10:21 | -43.56090 | 172.30242 | 11454 ft | 294 kts | 247° |
| 2026-05-08 10:21 | -43.57237 | 172.27786 | 11740 ft | 317 kts | 246° |
| 2026-05-08 10:21 | -43.58476 | 172.25134 | 11925 ft | 341 kts | 245° |
| 2026-05-08 10:21 | -43.59800 | 172.22321 | 12301 ft | 356 kts | 245° |
| 2026-05-08 10:22 | -43.61170 | 172.19437 | 12951 ft | 362 kts | 244° |
| 2026-05-08 10:22 | -43.62564 | 172.16510 | 13579 ft | 367 kts | 245° |
| 2026-05-08 10:22 | -43.63972 | 172.13551 | 14232 ft | 371 kts | 245° |
| 2026-05-08 10:22 | -43.65375 | 172.10596 | 14868 ft | 375 kts | 245° |
| 2026-05-08 10:23 | -43.66810 | 172.07565 | 15469 ft | 380 kts | 245° |
| 2026-05-08 10:23 | -43.68261 | 172.04492 | 16088 ft | 384 kts | 245° |
| 2026-05-08 10:23 | -43.69728 | 172.01380 | 16684 ft | 389 kts | 245° |
| 2026-05-08 10:23 | -43.71211 | 171.98233 | 17283 ft | 393 kts | 245° |
| 2026-05-08 10:24 | -43.72711 | 171.95042 | 17824 ft | 397 kts | 245° |
| 2026-05-08 10:24 | -43.74225 | 171.91823 | 18362 ft | 401 kts | 245° |
| 2026-05-08 10:24 | -43.75750 | 171.88575 | 18878 ft | 405 kts | 245° |
| 2026-05-08 10:24 | -43.77270 | 171.85334 | 19389 ft | 409 kts | 245° |
| 2026-05-08 10:25 | -43.78823 | 171.82018 | 19912 ft | 412 kts | 245° |
| 2026-05-08 10:25 | -43.80391 | 171.78670 | 20413 ft | 416 kts | 245° |
| 2026-05-08 10:25 | -43.81970 | 171.75291 | 20899 ft | 420 kts | 245° |
| 2026-05-08 10:25 | -43.83562 | 171.71878 | 21202 ft | 423 kts | 245° |
| 2026-05-08 10:26 | -43.85116 | 171.68430 | 21184 ft | 421 kts | 246° |
| 2026-05-08 10:26 | -43.86609 | 171.64948 | 21201 ft | 420 kts | 247° |
| 2026-05-08 10:26 | -43.88084 | 171.61456 | 21210 ft | 420 kts | 247° |
| 2026-05-08 10:26 | -43.89542 | 171.58003 | 21205 ft | 421 kts | 247° |
| 2026-05-08 10:27 | -43.91025 | 171.54508 | 21197 ft | 421 kts | 247° |
| 2026-05-08 10:27 | -43.92514 | 171.51015 | 21199 ft | 421 kts | 247° |
| 2026-05-08 10:27 | -43.94005 | 171.47523 | 21201 ft | 421 kts | 247° |
| 2026-05-08 10:27 | -43.95497 | 171.44027 | 21199 ft | 421 kts | 247° |
| 2026-05-08 10:28 | -43.96983 | 171.40542 | 21189 ft | 419 kts | 247° |
| 2026-05-08 10:28 | -43.98461 | 171.37057 | 21197 ft | 419 kts | 247° |
| 2026-05-08 10:28 | -43.99933 | 171.33567 | 21204 ft | 419 kts | 247° |
| 2026-05-08 10:28 | -44.01407 | 171.30065 | 21206 ft | 420 kts | 247° |
| 2026-05-08 10:29 | -44.02861 | 171.26609 | 21196 ft | 420 kts | 247° |
| 2026-05-08 10:29 | -44.04334 | 171.23104 | 21199 ft | 420 kts | 247° |
| 2026-05-08 10:29 | -44.05805 | 171.19602 | 21203 ft | 420 kts | 247° |
| 2026-05-08 10:29 | -44.07277 | 171.16094 | 21203 ft | 419 kts | 247° |
| 2026-05-08 10:30 | -44.08743 | 171.12595 | 21194 ft | 419 kts | 247° |
| 2026-05-08 10:30 | -44.10209 | 171.09096 | 21205 ft | 418 kts | 248° |
| 2026-05-08 10:30 | -44.11667 | 171.05608 | 21206 ft | 417 kts | 248° |
| 2026-05-08 10:30 | -44.13126 | 171.02113 | 21211 ft | 417 kts | 248° |
| 2026-05-08 10:31 | -44.14570 | 170.98650 | 21199 ft | 417 kts | 248° |
| 2026-05-08 10:31 | -44.15999 | 170.95219 | 21206 ft | 416 kts | 248° |
| 2026-05-08 10:31 | -44.17449 | 170.91732 | 21221 ft | 416 kts | 248° |
| 2026-05-08 10:31 | -44.18897 | 170.88246 | 21219 ft | 416 kts | 248° |
| 2026-05-08 10:32 | -44.20339 | 170.84772 | 21208 ft | 410 kts | 248° |
| 2026-05-08 10:32 | -44.21743 | 170.81401 | 21201 ft | 394 kts | 248° |
| 2026-05-08 10:32 | -44.23091 | 170.78159 | 21195 ft | 379 kts | 249° |
| 2026-05-08 10:32 | -44.24389 | 170.75026 | 21213 ft | 371 kts | 249° |
| 2026-05-08 10:33 | -44.25674 | 170.71900 | 21210 ft | 371 kts | 249° |
| 2026-05-08 10:33 | -44.26935 | 170.68841 | 21217 ft | 367 kts | 249° |
| 2026-05-08 10:33 | -44.28203 | 170.65767 | 21223 ft | 364 kts | 249° |
| 2026-05-08 10:33 | -44.29464 | 170.62709 | 21210 ft | 362 kts | 249° |
| 2026-05-08 10:34 | -44.30715 | 170.59669 | 21214 ft | 361 kts | 249° |
| 2026-05-08 10:34 | -44.31964 | 170.56627 | 21213 ft | 362 kts | 249° |
| 2026-05-08 10:34 | -44.33216 | 170.53576 | 21239 ft | 363 kts | 249° |
| 2026-05-08 10:34 | -44.34477 | 170.50492 | 21227 ft | 368 kts | 248° |
| 2026-05-08 10:35 | -44.35746 | 170.47394 | 21218 ft | 366 kts | 248° |
| 2026-05-08 10:35 | -44.37006 | 170.44319 | 21226 ft | 363 kts | 248° |
| 2026-05-08 10:35 | -44.38240 | 170.41305 | 21211 ft | 361 kts | 248° |
| 2026-05-08 10:35 | -44.39484 | 170.38264 | 21232 ft | 360 kts | 248° |
| 2026-05-08 10:36 | -44.40722 | 170.35227 | 21223 ft | 360 kts | 248° |
| 2026-05-08 10:36 | -44.41960 | 170.32188 | 21224 ft | 360 kts | 248° |
| 2026-05-08 10:36 | -44.43194 | 170.29159 | 21139 ft | 356 kts | 248° |
| 2026-05-08 10:36 | -44.44411 | 170.26171 | 20911 ft | 350 kts | 248° |
| 2026-05-08 10:37 | -44.45610 | 170.23225 | 20566 ft | 347 kts | 248° |
| 2026-05-08 10:37 | -44.46793 | 170.20312 | 20259 ft | 342 kts | 248° |
| 2026-05-08 10:37 | -44.47948 | 170.17466 | 19907 ft | 339 kts | 248° |
| 2026-05-08 10:37 | -44.49103 | 170.14612 | 19594 ft | 334 kts | 248° |
| 2026-05-08 10:38 | -44.50246 | 170.11788 | 19258 ft | 332 kts | 248° |
| 2026-05-08 10:38 | -44.51376 | 170.08989 | 18935 ft | 330 kts | 248° |
| 2026-05-08 10:38 | -44.52500 | 170.06202 | 18614 ft | 327 kts | 248° |
| 2026-05-08 10:38 | -44.53616 | 170.03433 | 18282 ft | 325 kts | 248° |
| 2026-05-08 10:39 | -44.54722 | 170.00691 | 17955 ft | 321 kts | 247° |
| 2026-05-08 10:39 | -44.55815 | 169.97976 | 17631 ft | 319 kts | 247° |
| 2026-05-08 10:39 | -44.56896 | 169.95287 | 17320 ft | 316 kts | 248° |
| 2026-05-08 10:39 | -44.57972 | 169.92604 | 16957 ft | 315 kts | 248° |
| 2026-05-08 10:40 | -44.59029 | 169.89972 | 16649 ft | 313 kts | 248° |
| 2026-05-08 10:40 | -44.60089 | 169.87330 | 16393 ft | 309 kts | 248° |
| 2026-05-08 10:40 | -44.61136 | 169.84721 | 16140 ft | 305 kts | 248° |
| 2026-05-08 10:40 | -44.62174 | 169.82130 | 15887 ft | 304 kts | 248° |
| 2026-05-08 10:41 | -44.63207 | 169.79544 | 15612 ft | 302 kts | 248° |
| 2026-05-08 10:41 | -44.64232 | 169.76981 | 15350 ft | 300 kts | 249° |
| 2026-05-08 10:41 | -44.65246 | 169.74440 | 15110 ft | 297 kts | 249° |
| 2026-05-08 10:41 | -44.66249 | 169.71928 | 15041 ft | 293 kts | 249° |
| 2026-05-08 10:42 | -44.67249 | 169.69415 | 14944 ft | 297 kts | 249° |
| 2026-05-08 10:42 | -44.68255 | 169.66876 | 14626 ft | 304 kts | 249° |
| 2026-05-08 10:42 | -44.69292 | 169.64266 | 14286 ft | 307 kts | 249° |
| 2026-05-08 10:42 | -44.70334 | 169.61645 | 13995 ft | 306 kts | 249° |
| 2026-05-08 10:43 | -44.71368 | 169.59041 | 13633 ft | 304 kts | 249° |
| 2026-05-08 10:43 | -44.72393 | 169.56461 | 13359 ft | 301 kts | 249° |
| 2026-05-08 10:43 | -44.73409 | 169.53897 | 13043 ft | 300 kts | 249° |
| 2026-05-08 10:43 | -44.74421 | 169.51340 | 12693 ft | 298 kts | 249° |
| 2026-05-08 10:44 | -44.75424 | 169.48804 | 12355 ft | 295 kts | 250° |
| 2026-05-08 10:44 | -44.76387 | 169.46329 | 12082 ft | 289 kts | 249° |
| 2026-05-08 10:44 | -44.77359 | 169.43877 | 11788 ft | 286 kts | 249° |
| 2026-05-08 10:44 | -44.78329 | 169.41431 | 11529 ft | 286 kts | 249° |
| 2026-05-08 10:45 | -44.79299 | 169.38971 | 11202 ft | 288 kts | 249° |
| 2026-05-08 10:45 | -44.80267 | 169.36513 | 10896 ft | 286 kts | 249° |
| 2026-05-08 10:45 | -44.81231 | 169.34067 | 10591 ft | 284 kts | 249° |
| 2026-05-08 10:45 | -44.81967 | 169.31553 | 10305 ft | 273 kts | 262° |
| 2026-05-08 10:46 | -44.82401 | 169.28984 | 10036 ft | 267 kts | 265° |
| 2026-05-08 10:46 | -44.82785 | 169.26481 | 9772 ft | 264 kts | 265° |
| 2026-05-08 10:46 | -44.83496 | 169.24064 | 9498 ft | 277 kts | 241° |
| 2026-05-08 10:46 | -44.84880 | 169.22114 | 9240 ft | 285 kts | 227° |
| 2026-05-08 10:47 | -44.86409 | 169.20338 | 8886 ft | 285 kts | 224° |
| 2026-05-08 10:47 | -44.87930 | 169.18601 | 8573 ft | 276 kts | 226° |
| 2026-05-08 10:47 | -44.89390 | 169.16925 | 8314 ft | 266 kts | 226° |
| 2026-05-08 10:47 | -44.90797 | 169.15291 | 8018 ft | 258 kts | 226° |
| 2026-05-08 10:48 | -44.92136 | 169.13727 | 7767 ft | 247 kts | 226° |
| 2026-05-08 10:48 | -44.93423 | 169.12221 | 7551 ft | 235 kts | 226° |
| 2026-05-08 10:48 | -44.94650 | 169.10776 | 7292 ft | 230 kts | 225° |
| 2026-05-08 10:48 | -44.95860 | 169.09351 | 7046 ft | 223 kts | 225° |
| 2026-05-08 10:49 | -44.97045 | 169.07955 | 6833 ft | 221 kts | 225° |
| 2026-05-08 10:49 | -44.98242 | 169.06581 | 6577 ft | 225 kts | 216° |
| 2026-05-08 10:49 | -44.99771 | 169.06096 | 6314 ft | 234 kts | 172° |
| 2026-05-08 10:49 | -45.01359 | 169.06504 | 5986 ft | 229 kts | 186° |
| 2026-05-08 10:50 | -45.02733 | 169.05647 | 5733 ft | 213 kts | 232° |
| 2026-05-08 10:50 | -45.03280 | 169.03812 | 5501 ft | 200 kts | 266° |
| 2026-05-08 10:50 | -45.03326 | 169.01868 | 5237 ft | 203 kts | 261° |
| 2026-05-08 10:50 | -45.03924 | 169.00090 | 4989 ft | 198 kts | 246° |
| 2026-05-08 10:51 | -45.04067 | 168.98255 | 4746 ft | 186 kts | 286° |
| 2026-05-08 10:51 | -45.03560 | 168.96637 | 4495 ft | 175 kts | 303° |
| 2026-05-08 10:51 | -45.02993 | 168.95154 | 4263 ft | 169 kts | 299° |
| 2026-05-08 10:51 | -45.02378 | 168.93778 | 4053 ft | 162 kts | 304° |
| 2026-05-08 10:52 | -45.01794 | 168.92468 | 3843 ft | 149 kts | 303° |
| 2026-05-08 10:52 | -45.01256 | 168.91248 | 3616 ft | 146 kts | 302° |
| 2026-05-08 10:52 | -45.00714 | 168.90023 | 3495 ft | 150 kts | 300° |
| 2026-05-08 10:52 | -45.00187 | 168.88703 | 3322 ft | 157 kts | 289° |
| 2026-05-08 10:53 | -44.99892 | 168.87247 | 3007 ft | 152 kts | 273° |
| 2026-05-08 10:53 | -44.99888 | 168.85799 | 2681 ft | 147 kts | 258° |
| 2026-05-08 10:53 | -45.00085 | 168.84367 | 2625 ft | 150 kts | 255° |
| 2026-05-08 10:53 | -45.00292 | 168.82937 | 2577 ft | 148 kts | 254° |
| 2026-05-08 10:54 | -45.00512 | 168.81544 | 2605 ft | 144 kts | 252° |
| 2026-05-08 10:54 | -45.00770 | 168.80147 | 2190 ft | 148 kts | 253° |
| 2026-05-08 10:54 | -45.01059 | 168.78771 | 1710 ft | 145 kts | 249° |
| 2026-05-08 10:54 | -45.01354 | 168.77391 | 1418 ft | 151 kts | 252° |
| 2026-05-08 10:55 | -45.01562 | 168.76055 | 1261 ft | 124 kts | 244° |
| 2026-05-08 10:55 | -45.01794 | 168.74953 | 1166 ft | 113 kts | 248° |
| 2026-05-08 10:55 | -45.01906 | 168.74150 | 1166 ft | 26 kts | 263° |
| 2026-05-08 10:55 | -45.01960 | 168.74046 | 1163 ft | 12 kts | 204° |
| 2026-05-08 10:56 | -45.02023 | 168.74010 | 1163 ft | 5 kts | 203° |
| 2026-05-08 10:56 | -45.02055 | 168.73997 | 1162 ft | 5 kts | 191° |
| 2026-05-08 10:56 | -45.02086 | 168.73980 | 1160 ft | 5 kts | 206° |
| 2026-05-08 10:56 | -45.02105 | 168.73967 | 1161 ft | 1 kts | 206° |
| 2026-05-08 10:57 | -45.02108 | 168.73965 | 1162 ft | 0 kts | 206° |
| 2026-05-08 10:57 | -45.02108 | 168.73964 | 1162 ft | 0 kts | 206° |